KTPA/TPA METAR and TAF weather

Enter ICAO airport designator
Station Type Date Time Source
KTPA METAR 2019/04/19 07:53 UTC NOAA

KTPA 190753Z 16008KT 10SM CLR 24/21 A2983 RMK AO2 SLP102 T02440206 $


Station Type Date Time Source
KTPA Decoded METAR 2019/04/19 07:53 UTC NOAA

TAMPA INTERNATIONAL AIRPORT , FL, United States (KTPA) 27-58N 082-32W 11M
Apr 19, 2019 - 03:53 AM EDT / 2019.04.19 0753 UTC
Wind: from the SSE (160 degrees) at 9 MPH (8 KT):0
Visibility: 10 mile(s):0
Sky conditions: clear
Temperature: 75.9 F (24.4 C)
Dew Point: 69.1 F (20.6 C)
Relative Humidity: 79%
Pressure (altimeter): 29.83 in. Hg (1010 hPa)
ob: KTPA 190753Z 16008KT 10SM CLR 24/21 A2983 RMK AO2 SLP102 T02440206
cycle: 8

Station Type Date Time Source
KTPA TAF 2019/04/19 06:22 UTC NOAA

TAF KTPA 190520Z 1906/2012 18012KT P6SM SCT050 SCT200
FM190900 18013G20KT P6SM SCT025 BKN050
FM191500 21022G31KT P6SM VCSH BKN020 OVC050
FM191800 23026G36KT 4SM TSRA SCT008CB BKN015
TEMPO 1918/1921 VRB35G45KT 2SM +TSRA BKN008CB
FM192300 26022G30KT P6SM VCSH SCT020 OVC040
FM200300 26014G24KT P6SM VCSH SCT025 BKN050

Example: see airport list